sensor_id;sensor_type;location;lat;lon;timestamp;P1;durP1;ratioP1;P2;durP2;ratioP2
31004;SDS011;17676;52.254;4.490;2023-04-16T00:02:11;12.57;;;0.88;;
31004;SDS011;17676;52.254;4.490;2023-04-16T00:04:38;9.90;;;0.68;;
31004;SDS011;17676;52.254;4.490;2023-04-16T00:07:03;11.85;;;1.05;;
31004;SDS011;17676;52.254;4.490;2023-04-16T00:09:29;6.78;;;0.98;;
31004;SDS011;17676;52.254;4.490;2023-04-16T00:11:55;10.18;;;0.70;;
31004;SDS011;17676;52.254;4.490;2023-04-16T00:14:21;6.28;;;0.52;;
31004;SDS011;17676;52.254;4.490;2023-04-16T00:16:46;6.72;;;0.93;;
31004;SDS011;17676;52.254;4.490;2023-04-16T00:19:12;10.15;;;0.60;;
31004;SDS011;17676;52.254;4.490;2023-04-16T00:21:38;6.43;;;1.00;;
31004;SDS011;17676;52.254;4.490;2023-04-16T00:24:04;9.07;;;0.60;;
31004;SDS011;17676;52.254;4.490;2023-04-16T00:26:30;13.05;;;0.80;;
31004;SDS011;17676;52.254;4.490;2023-04-16T00:28:56;8.18;;;0.95;;
31004;SDS011;17676;52.254;4.490;2023-04-16T00:31:25;11.02;;;0.57;;
31004;SDS011;17676;52.254;4.490;2023-04-16T00:33:55;12.18;;;0.88;;
31004;SDS011;17676;52.254;4.490;2023-04-16T00:36:22;3.72;;;0.82;;
31004;SDS011;17676;52.254;4.490;2023-04-16T00:38:48;10.25;;;0.70;;
31004;SDS011;17676;52.254;4.490;2023-04-16T00:41:14;10.48;;;0.93;;
31004;SDS011;17676;52.254;4.490;2023-04-16T00:43:40;14.43;;;1.30;;
31004;SDS011;17676;52.254;4.490;2023-04-16T00:46:06;10.70;;;0.90;;
31004;SDS011;17676;52.254;4.490;2023-04-16T00:48:32;14.30;;;0.90;;
31004;SDS011;17676;52.254;4.490;2023-04-16T00:50:59;9.20;;;1.58;;
31004;SDS011;17676;52.254;4.490;2023-04-16T00:53:25;9.93;;;1.25;;
31004;SDS011;17676;52.254;4.490;2023-04-16T00:55:51;13.25;;;1.77;;
31004;SDS011;17676;52.254;4.490;2023-04-16T00:58:20;19.48;;;2.80;;
31004;SDS011;17676;52.254;4.490;2023-04-16T01:00:45;13.23;;;1.60;;
31004;SDS011;17676;52.254;4.490;2023-04-16T01:03:11;9.70;;;1.42;;
31004;SDS011;17676;52.254;4.490;2023-04-16T01:05:37;12.55;;;1.73;;
31004;SDS011;17676;52.254;4.490;2023-04-16T01:08:03;13.35;;;1.80;;
31004;SDS011;17676;52.254;4.490;2023-04-16T01:10:29;11.10;;;1.92;;
31004;SDS011;17676;52.254;4.490;2023-04-16T01:12:55;10.93;;;1.58;;
31004;SDS011;17676;52.254;4.490;2023-04-16T01:15:20;8.75;;;1.65;;
31004;SDS011;17676;52.254;4.490;2023-04-16T01:17:46;8.48;;;1.85;;
31004;SDS011;17676;52.254;4.490;2023-04-16T01:20:12;12.98;;;1.77;;
31004;SDS011;17676;52.254;4.490;2023-04-16T01:22:38;11.82;;;1.40;;
31004;SDS011;17676;52.254;4.490;2023-04-16T01:25:04;13.43;;;1.73;;
31004;SDS011;17676;52.254;4.490;2023-04-16T01:27:30;13.38;;;1.65;;
31004;SDS011;17676;52.254;4.490;2023-04-16T01:29:56;13.90;;;2.85;;
31004;SDS011;17676;52.254;4.490;2023-04-16T01:32:22;11.77;;;1.60;;
31004;SDS011;17676;52.254;4.490;2023-04-16T01:34:48;12.30;;;2.10;;
31004;SDS011;17676;52.254;4.490;2023-04-16T01:37:14;18.50;;;2.95;;
31004;SDS011;17676;52.254;4.490;2023-04-16T01:39:40;15.88;;;1.73;;
31004;SDS011;17676;52.254;4.490;2023-04-16T01:42:05;11.73;;;1.73;;
31004;SDS011;17676;52.254;4.490;2023-04-16T01:44:31;8.35;;;1.83;;
31004;SDS011;17676;52.254;4.490;2023-04-16T01:46:57;13.18;;;2.33;;
31004;SDS011;17676;52.254;4.490;2023-04-16T01:49:22;10.75;;;1.77;;
31004;SDS011;17676;52.254;4.490;2023-04-16T01:51:48;13.82;;;1.60;;
31004;SDS011;17676;52.254;4.490;2023-04-16T01:54:15;9.27;;;1.60;;
31004;SDS011;17676;52.254;4.490;2023-04-16T01:56:40;13.70;;;2.53;;
31004;SDS011;17676;52.254;4.490;2023-04-16T01:59:06;16.10;;;2.20;;
31004;SDS011;17676;52.254;4.490;2023-04-16T02:01:32;12.07;;;1.58;;
31004;SDS011;17676;52.254;4.490;2023-04-16T02:03:57;16.08;;;2.00;;
31004;SDS011;17676;52.254;4.490;2023-04-16T02:06:25;13.32;;;2.10;;
31004;SDS011;17676;52.254;4.490;2023-04-16T02:08:51;17.17;;;2.50;;
31004;SDS011;17676;52.254;4.490;2023-04-16T02:11:17;11.85;;;2.10;;
31004;SDS011;17676;52.254;4.490;2023-04-16T02:13:42;13.85;;;1.90;;
31004;SDS011;17676;52.254;4.490;2023-04-16T02:16:10;18.27;;;2.28;;
31004;SDS011;17676;52.254;4.490;2023-04-16T02:18:36;14.20;;;2.30;;
31004;SDS011;17676;52.254;4.490;2023-04-16T02:21:02;15.48;;;2.47;;
31004;SDS011;17676;52.254;4.490;2023-04-16T02:23:30;15.45;;;2.35;;
31004;SDS011;17676;52.254;4.490;2023-04-16T02:25:56;15.93;;;1.92;;
31004;SDS011;17676;52.254;4.490;2023-04-16T02:28:22;16.27;;;1.48;;
31004;SDS011;17676;52.254;4.490;2023-04-16T02:30:47;15.85;;;1.85;;
31004;SDS011;17676;52.254;4.490;2023-04-16T02:33:13;13.63;;;2.10;;
31004;SDS011;17676;52.254;4.490;2023-04-16T02:35:39;18.98;;;2.28;;
31004;SDS011;17676;52.254;4.490;2023-04-16T02:38:05;21.67;;;2.58;;
31004;SDS011;17676;52.254;4.490;2023-04-16T02:40:31;14.88;;;2.65;;
31004;SDS011;17676;52.254;4.490;2023-04-16T02:42:57;13.63;;;2.03;;
31004;SDS011;17676;52.254;4.490;2023-04-16T02:45:23;10.00;;;1.90;;
31004;SDS011;17676;52.254;4.490;2023-04-16T02:47:49;11.82;;;1.73;;
31004;SDS011;17676;52.254;4.490;2023-04-16T02:50:16;15.25;;;1.58;;
31004;SDS011;17676;52.254;4.490;2023-04-16T02:52:42;11.27;;;2.00;;
31004;SDS011;17676;52.254;4.490;2023-04-16T02:55:07;16.65;;;1.95;;
31004;SDS011;17676;52.254;4.490;2023-04-16T02:57:34;16.35;;;2.60;;
31004;SDS011;17676;52.254;4.490;2023-04-16T02:59:59;10.48;;;1.65;;
31004;SDS011;17676;52.254;4.490;2023-04-16T03:02:25;9.48;;;1.48;;
31004;SDS011;17676;52.254;4.490;2023-04-16T03:04:51;9.93;;;1.58;;
31004;SDS011;17676;52.254;4.490;2023-04-16T03:07:18;13.18;;;1.50;;
31004;SDS011;17676;52.254;4.490;2023-04-16T03:09:43;8.18;;;2.03;;
31004;SDS011;17676;52.254;4.490;2023-04-16T03:12:09;13.95;;;2.05;;
31004;SDS011;17676;52.254;4.490;2023-04-16T03:14:35;6.88;;;1.30;;
31004;SDS011;17676;52.254;4.490;2023-04-16T03:17:01;19.95;;;1.83;;
31004;SDS011;17676;52.254;4.490;2023-04-16T03:19:27;9.68;;;2.22;;
31004;SDS011;17676;52.254;4.490;2023-04-16T03:21:52;13.35;;;1.58;;
31004;SDS011;17676;52.254;4.490;2023-04-16T03:24:18;12.30;;;1.02;;
31004;SDS011;17676;52.254;4.490;2023-04-16T03:26:43;6.22;;;0.90;;
31004;SDS011;17676;52.254;4.490;2023-04-16T03:29:09;12.98;;;0.90;;
31004;SDS011;17676;52.254;4.490;2023-04-16T03:31:34;10.30;;;1.45;;
31004;SDS011;17676;52.254;4.490;2023-04-16T03:34:00;12.25;;;2.47;;
31004;SDS011;17676;52.254;4.490;2023-04-16T03:36:26;10.13;;;1.10;;
31004;SDS011;17676;52.254;4.490;2023-04-16T03:38:52;7.60;;;0.70;;
31004;SDS011;17676;52.254;4.490;2023-04-16T03:41:17;8.75;;;0.80;;
31004;SDS011;17676;52.254;4.490;2023-04-16T03:43:43;11.60;;;0.80;;
31004;SDS011;17676;52.254;4.490;2023-04-16T03:46:09;10.65;;;1.02;;
31004;SDS011;17676;52.254;4.490;2023-04-16T03:48:35;10.43;;;1.30;;
31004;SDS011;17676;52.254;4.490;2023-04-16T03:51:03;6.82;;;0.73;;
31004;SDS011;17676;52.254;4.490;2023-04-16T03:53:29;6.75;;;1.40;;
31004;SDS011;17676;52.254;4.490;2023-04-16T03:55:55;8.40;;;0.75;;
31004;SDS011;17676;52.254;4.490;2023-04-16T03:58:20;11.45;;;1.23;;
31004;SDS011;17676;52.254;4.490;2023-04-16T04:00:46;13.75;;;1.52;;
31004;SDS011;17676;52.254;4.490;2023-04-16T04:03:12;11.88;;;1.33;;
31004;SDS011;17676;52.254;4.490;2023-04-16T04:05:41;14.20;;;1.60;;
31004;SDS011;17676;52.254;4.490;2023-04-16T04:08:07;13.93;;;1.10;;
31004;SDS011;17676;52.254;4.490;2023-04-16T04:10:33;9.90;;;0.82;;
31004;SDS011;17676;52.254;4.490;2023-04-16T04:13:01;10.98;;;1.20;;
31004;SDS011;17676;52.254;4.490;2023-04-16T04:15:27;17.45;;;1.42;;
31004;SDS011;17676;52.254;4.490;2023-04-16T04:17:53;13.80;;;1.00;;
31004;SDS011;17676;52.254;4.490;2023-04-16T04:20:19;13.85;;;0.98;;
31004;SDS011;17676;52.254;4.490;2023-04-16T04:22:44;8.55;;;0.90;;
31004;SDS011;17676;52.254;4.490;2023-04-16T04:25:13;13.85;;;1.25;;
31004;SDS011;17676;52.254;4.490;2023-04-16T04:27:39;9.18;;;1.30;;
31004;SDS011;17676;52.254;4.490;2023-04-16T04:30:05;13.93;;;1.60;;
31004;SDS011;17676;52.254;4.490;2023-04-16T04:32:31;10.60;;;1.45;;
31004;SDS011;17676;52.254;4.490;2023-04-16T04:34:58;13.75;;;1.65;;
31004;SDS011;17676;52.254;4.490;2023-04-16T04:37:25;9.73;;;1.73;;
31004;SDS011;17676;52.254;4.490;2023-04-16T04:39:51;13.00;;;1.42;;
31004;SDS011;17676;52.254;4.490;2023-04-16T04:42:16;15.30;;;1.67;;
31004;SDS011;17676;52.254;4.490;2023-04-16T04:44:42;15.15;;;1.85;;
31004;SDS011;17676;52.254;4.490;2023-04-16T04:47:09;11.85;;;1.85;;
31004;SDS011;17676;52.254;4.490;2023-04-16T04:49:34;8.65;;;1.98;;
31004;SDS011;17676;52.254;4.490;2023-04-16T04:52:00;13.75;;;1.80;;
31004;SDS011;17676;52.254;4.490;2023-04-16T04:54:29;5.55;;;1.05;;
31004;SDS011;17676;52.254;4.490;2023-04-16T04:56:55;13.23;;;1.13;;
31004;SDS011;17676;52.254;4.490;2023-04-16T04:59:23;7.57;;;1.15;;
31004;SDS011;17676;52.254;4.490;2023-04-16T05:01:49;12.98;;;1.73;;
31004;SDS011;17676;52.254;4.490;2023-04-16T05:04:15;16.55;;;2.30;;
31004;SDS011;17676;52.254;4.490;2023-04-16T05:06:42;7.93;;;1.73;;
31004;SDS011;17676;52.254;4.490;2023-04-16T05:09:07;11.00;;;1.40;;
31004;SDS011;17676;52.254;4.490;2023-04-16T05:11:36;7.88;;;1.80;;
31004;SDS011;17676;52.254;4.490;2023-04-16T05:14:02;13.45;;;2.13;;
31004;SDS011;17676;52.254;4.490;2023-04-16T05:16:28;7.95;;;1.67;;
31004;SDS011;17676;52.254;4.490;2023-04-16T05:18:54;7.40;;;1.50;;
31004;SDS011;17676;52.254;4.490;2023-04-16T05:21:20;12.68;;;1.70;;
31004;SDS011;17676;52.254;4.490;2023-04-16T05:23:46;8.88;;;1.70;;
31004;SDS011;17676;52.254;4.490;2023-04-16T05:26:11;12.25;;;2.53;;
31004;SDS011;17676;52.254;4.490;2023-04-16T05:28:37;9.32;;;2.08;;
31004;SDS011;17676;52.254;4.490;2023-04-16T05:31:02;11.40;;;2.13;;
31004;SDS011;17676;52.254;4.490;2023-04-16T05:33:28;11.30;;;1.83;;
31004;SDS011;17676;52.254;4.490;2023-04-16T05:35:54;16.67;;;2.58;;
31004;SDS011;17676;52.254;4.490;2023-04-16T05:38:19;8.40;;;3.15;;
31004;SDS011;17676;52.254;4.490;2023-04-16T05:40:45;11.48;;;2.65;;
31004;SDS011;17676;52.254;4.490;2023-04-16T05:43:11;9.45;;;2.55;;
31004;SDS011;17676;52.254;4.490;2023-04-16T05:45:36;11.55;;;2.58;;
31004;SDS011;17676;52.254;4.490;2023-04-16T05:48:07;14.85;;;2.50;;
31004;SDS011;17676;52.254;4.490;2023-04-16T05:50:33;11.13;;;3.40;;
31004;SDS011;17676;52.254;4.490;2023-04-16T05:52:59;17.05;;;3.70;;
31004;SDS011;17676;52.254;4.490;2023-04-16T05:55:26;19.02;;;4.38;;
31004;SDS011;17676;52.254;4.490;2023-04-16T05:57:52;12.93;;;4.15;;
31004;SDS011;17676;52.254;4.490;2023-04-16T06:00:17;13.27;;;4.05;;
31004;SDS011;17676;52.254;4.490;2023-04-16T06:02:44;10.07;;;5.25;;
31004;SDS011;17676;52.254;4.490;2023-04-16T06:05:10;13.52;;;4.93;;
31004;SDS011;17676;52.254;4.490;2023-04-16T06:07:36;11.55;;;2.92;;
31004;SDS011;17676;52.254;4.490;2023-04-16T06:10:01;17.55;;;4.55;;
31004;SDS011;17676;52.254;4.490;2023-04-16T06:12:27;12.73;;;4.15;;
31004;SDS011;17676;52.254;4.490;2023-04-16T06:14:52;13.32;;;4.40;;
31004;SDS011;17676;52.254;4.490;2023-04-16T06:17:18;15.40;;;5.25;;
31004;SDS011;17676;52.254;4.490;2023-04-16T06:19:43;19.05;;;4.50;;
31004;SDS011;17676;52.254;4.490;2023-04-16T06:22:10;12.82;;;4.10;;
31004;SDS011;17676;52.254;4.490;2023-04-16T06:24:36;13.68;;;3.80;;
31004;SDS011;17676;52.254;4.490;2023-04-16T06:27:01;11.68;;;3.72;;
31004;SDS011;17676;52.254;4.490;2023-04-16T06:29:27;12.50;;;4.00;;
31004;SDS011;17676;52.254;4.490;2023-04-16T06:31:53;12.05;;;4.07;;
31004;SDS011;17676;52.254;4.490;2023-04-16T06:34:19;14.10;;;4.38;;
31004;SDS011;17676;52.254;4.490;2023-04-16T06:36:45;10.85;;;4.15;;
31004;SDS011;17676;52.254;4.490;2023-04-16T06:39:10;14.55;;;5.22;;
31004;SDS011;17676;52.254;4.490;2023-04-16T06:41:36;10.07;;;4.72;;
31004;SDS011;17676;52.254;4.490;2023-04-16T06:44:01;12.25;;;5.05;;
31004;SDS011;17676;52.254;4.490;2023-04-16T06:46:27;15.30;;;4.05;;
31004;SDS011;17676;52.254;4.490;2023-04-16T06:48:53;12.50;;;3.90;;
31004;SDS011;17676;52.254;4.490;2023-04-16T06:51:19;10.50;;;4.10;;
31004;SDS011;17676;52.254;4.490;2023-04-16T06:53:45;13.25;;;4.35;;
31004;SDS011;17676;52.254;4.490;2023-04-16T06:56:11;12.23;;;3.95;;
31004;SDS011;17676;52.254;4.490;2023-04-16T06:58:37;12.13;;;4.00;;
31004;SDS011;17676;52.254;4.490;2023-04-16T07:01:02;12.32;;;4.47;;
31004;SDS011;17676;52.254;4.490;2023-04-16T07:03:29;12.15;;;4.90;;
31004;SDS011;17676;52.254;4.490;2023-04-16T07:05:55;12.55;;;4.05;;
31004;SDS011;17676;52.254;4.490;2023-04-16T07:08:21;12.15;;;4.00;;
31004;SDS011;17676;52.254;4.490;2023-04-16T07:10:46;14.50;;;3.63;;
31004;SDS011;17676;52.254;4.490;2023-04-16T07:13:12;11.27;;;3.33;;
31004;SDS011;17676;52.254;4.490;2023-04-16T07:15:38;10.32;;;2.50;;
31004;SDS011;17676;52.254;4.490;2023-04-16T07:18:04;12.88;;;3.92;;
31004;SDS011;17676;52.254;4.490;2023-04-16T07:20:29;13.50;;;4.13;;
31004;SDS011;17676;52.254;4.490;2023-04-16T07:22:55;10.77;;;4.20;;
31004;SDS011;17676;52.254;4.490;2023-04-16T07:25:23;15.95;;;4.53;;
31004;SDS011;17676;52.254;4.490;2023-04-16T07:27:48;13.45;;;4.20;;
31004;SDS011;17676;52.254;4.490;2023-04-16T07:30:14;18.88;;;5.07;;
31004;SDS011;17676;52.254;4.490;2023-04-16T07:32:40;16.38;;;4.88;;
31004;SDS011;17676;52.254;4.490;2023-04-16T07:35:06;7.35;;;3.00;;
31004;SDS011;17676;52.254;4.490;2023-04-16T07:37:33;8.65;;;3.72;;
31004;SDS011;17676;52.254;4.490;2023-04-16T07:39:59;12.18;;;4.15;;
31004;SDS011;17676;52.254;4.490;2023-04-16T07:42:25;11.15;;;3.90;;
31004;SDS011;17676;52.254;4.490;2023-04-16T07:44:51;17.55;;;3.35;;
31004;SDS011;17676;52.254;4.490;2023-04-16T07:47:17;11.75;;;3.38;;
31004;SDS011;17676;52.254;4.490;2023-04-16T07:49:43;17.60;;;3.92;;
31004;SDS011;17676;52.254;4.490;2023-04-16T07:52:08;12.50;;;4.13;;
31004;SDS011;17676;52.254;4.490;2023-04-16T07:54:34;14.38;;;3.88;;
31004;SDS011;17676;52.254;4.490;2023-04-16T07:57:00;13.88;;;4.47;;
31004;SDS011;17676;52.254;4.490;2023-04-16T07:59:26;18.08;;;4.43;;
31004;SDS011;17676;52.254;4.490;2023-04-16T08:01:51;10.25;;;3.88;;
31004;SDS011;17676;52.254;4.490;2023-04-16T08:04:18;14.25;;;4.55;;
31004;SDS011;17676;52.254;4.490;2023-04-16T08:06:48;12.90;;;3.72;;
31004;SDS011;17676;52.254;4.490;2023-04-16T08:09:17;11.32;;;3.80;;
31004;SDS011;17676;52.254;4.490;2023-04-16T08:11:44;17.17;;;4.30;;
31004;SDS011;17676;52.254;4.490;2023-04-16T08:14:10;14.15;;;4.07;;
31004;SDS011;17676;52.254;4.490;2023-04-16T08:16:35;14.10;;;4.35;;
31004;SDS011;17676;52.254;4.490;2023-04-16T08:19:02;9.85;;;3.85;;
31004;SDS011;17676;52.254;4.490;2023-04-16T08:21:28;8.77;;;3.20;;
31004;SDS011;17676;52.254;4.490;2023-04-16T08:23:54;9.63;;;3.30;;
31004;SDS011;17676;52.254;4.490;2023-04-16T08:26:20;7.18;;;3.65;;
31004;SDS011;17676;52.254;4.490;2023-04-16T08:28:47;11.48;;;2.97;;
31004;SDS011;17676;52.254;4.490;2023-04-16T08:31:12;13.05;;;2.95;;
31004;SDS011;17676;52.254;4.490;2023-04-16T08:33:39;14.20;;;3.33;;
31004;SDS011;17676;52.254;4.490;2023-04-16T08:36:07;14.68;;;3.83;;
31004;SDS011;17676;52.254;4.490;2023-04-16T08:38:33;13.30;;;3.72;;
31004;SDS011;17676;52.254;4.490;2023-04-16T08:41:00;15.15;;;3.30;;
31004;SDS011;17676;52.254;4.490;2023-04-16T08:43:30;15.13;;;3.80;;
31004;SDS011;17676;52.254;4.490;2023-04-16T08:45:58;16.38;;;4.30;;
31004;SDS011;17676;52.254;4.490;2023-04-16T08:48:25;19.88;;;4.07;;
31004;SDS011;17676;52.254;4.490;2023-04-16T08:50:56;9.55;;;3.70;;
31004;SDS011;17676;52.254;4.490;2023-04-16T08:53:28;10.20;;;3.70;;
31004;SDS011;17676;52.254;4.490;2023-04-16T08:55:57;17.45;;;3.65;;
31004;SDS011;17676;52.254;4.490;2023-04-16T08:58:28;8.73;;;3.22;;
31004;SDS011;17676;52.254;4.490;2023-04-16T09:00:58;13.23;;;3.65;;
31004;SDS011;17676;52.254;4.490;2023-04-16T09:03:27;14.05;;;4.32;;
31004;SDS011;17676;52.254;4.490;2023-04-16T09:05:53;11.13;;;3.10;;
31004;SDS011;17676;52.254;4.490;2023-04-16T09:08:21;16.67;;;4.38;;
31004;SDS011;17676;52.254;4.490;2023-04-16T09:10:48;14.63;;;3.75;;
31004;SDS011;17676;52.254;4.490;2023-04-16T09:13:14;12.20;;;4.40;;
31004;SDS011;17676;52.254;4.490;2023-04-16T09:15:45;9.55;;;3.45;;
31004;SDS011;17676;52.254;4.490;2023-04-16T09:18:11;16.38;;;4.43;;
31004;SDS011;17676;52.254;4.490;2023-04-16T09:20:37;17.40;;;3.88;;
31004;SDS011;17676;52.254;4.490;2023-04-16T09:23:03;15.27;;;4.78;;
31004;SDS011;17676;52.254;4.490;2023-04-16T09:25:32;15.55;;;4.60;;
31004;SDS011;17676;52.254;4.490;2023-04-16T09:28:02;13.35;;;5.00;;
31004;SDS011;17676;52.254;4.490;2023-04-16T09:30:28;14.82;;;4.90;;
31004;SDS011;17676;52.254;4.490;2023-04-16T09:33:13;12.63;;;4.60;;
31004;SDS011;17676;52.254;4.490;2023-04-16T09:35:49;8.90;;;4.25;;
31004;SDS011;17676;52.254;4.490;2023-04-16T09:38:18;12.40;;;4.90;;
31004;SDS011;17676;52.254;4.490;2023-04-16T09:40:45;12.38;;;4.45;;
31004;SDS011;17676;52.254;4.490;2023-04-16T09:43:15;17.35;;;4.47;;
31004;SDS011;17676;52.254;4.490;2023-04-16T09:45:49;10.93;;;4.93;;
31004;SDS011;17676;52.254;4.490;2023-04-16T09:48:19;11.77;;;3.80;;
31004;SDS011;17676;52.254;4.490;2023-04-16T09:50:52;11.20;;;3.88;;
31004;SDS011;17676;52.254;4.490;2023-04-16T09:53:24;11.30;;;3.97;;
31004;SDS011;17676;52.254;4.490;2023-04-16T09:55:55;6.45;;;4.00;;
31004;SDS011;17676;52.254;4.490;2023-04-16T09:58:25;11.38;;;3.72;;
31004;SDS011;17676;52.254;4.490;2023-04-16T10:01:00;7.75;;;3.17;;
31004;SDS011;17676;52.254;4.490;2023-04-16T10:03:30;11.23;;;3.20;;
31004;SDS011;17676;52.254;4.490;2023-04-16T10:06:21;13.27;;;3.40;;
31004;SDS011;17676;52.254;4.490;2023-04-16T10:08:51;9.63;;;3.40;;
31004;SDS011;17676;52.254;4.490;2023-04-16T10:11:20;13.88;;;3.33;;
31004;SDS011;17676;52.254;4.490;2023-04-16T10:13:46;12.45;;;3.47;;
31004;SDS011;17676;52.254;4.490;2023-04-16T10:16:12;10.68;;;3.00;;
31004;SDS011;17676;52.254;4.490;2023-04-16T10:18:41;9.65;;;3.30;;
31004;SDS011;17676;52.254;4.490;2023-04-16T10:21:09;7.70;;;3.30;;
31004;SDS011;17676;52.254;4.490;2023-04-16T10:23:39;14.50;;;4.03;;
31004;SDS011;17676;52.254;4.490;2023-04-16T10:26:06;10.65;;;3.25;;
31004;SDS011;17676;52.254;4.490;2023-04-16T10:28:32;7.05;;;2.75;;
31004;SDS011;17676;52.254;4.490;2023-04-16T10:31:00;10.00;;;3.13;;
31004;SDS011;17676;52.254;4.490;2023-04-16T10:33:31;14.07;;;4.25;;
31004;SDS011;17676;52.254;4.490;2023-04-16T10:38:39;8.93;;;3.70;;
31004;SDS011;17676;52.254;4.490;2023-04-16T10:41:13;9.00;;;3.70;;
31004;SDS011;17676;52.254;4.490;2023-04-16T10:43:43;8.30;;;4.47;;
31004;SDS011;17676;52.254;4.490;2023-04-16T10:46:23;12.55;;;3.10;;
31004;SDS011;17676;52.254;4.490;2023-04-16T10:48:54;14.38;;;3.17;;
31004;SDS011;17676;52.254;4.490;2023-04-16T10:51:25;12.30;;;3.40;;
31004;SDS011;17676;52.254;4.490;2023-04-16T10:56:33;22.55;;;3.20;;
31004;SDS011;17676;52.254;4.490;2023-04-16T10:59:00;15.50;;;4.20;;
31004;SDS011;17676;52.254;4.490;2023-04-16T11:01:31;14.07;;;5.03;;
31004;SDS011;17676;52.254;4.490;2023-04-16T11:04:00;14.38;;;4.60;;
31004;SDS011;17676;52.254;4.490;2023-04-16T11:09:43;14.65;;;5.05;;
31004;SDS011;17676;52.254;4.490;2023-04-16T11:12:13;13.23;;;5.45;;
31004;SDS011;17676;52.254;4.490;2023-04-16T11:14:40;14.90;;;5.15;;
31004;SDS011;17676;52.254;4.490;2023-04-16T11:17:07;11.85;;;4.45;;
31004;SDS011;17676;52.254;4.490;2023-04-16T11:19:36;16.38;;;4.13;;
31004;SDS011;17676;52.254;4.490;2023-04-16T11:22:02;9.57;;;4.68;;
31004;SDS011;17676;52.254;4.490;2023-04-16T11:24:31;17.02;;;4.65;;
31004;SDS011;17676;52.254;4.490;2023-04-16T11:26:57;19.48;;;4.43;;
31004;SDS011;17676;52.254;4.490;2023-04-16T11:29:23;18.85;;;5.10;;
31004;SDS011;17676;52.254;4.490;2023-04-16T11:31:52;17.08;;;4.97;;
31004;SDS011;17676;52.254;4.490;2023-04-16T11:34:19;15.95;;;5.40;;
31004;SDS011;17676;52.254;4.490;2023-04-16T11:36:45;11.55;;;5.93;;
31004;SDS011;17676;52.254;4.490;2023-04-16T11:39:12;15.32;;;6.70;;
31004;SDS011;17676;52.254;4.490;2023-04-16T11:41:44;17.92;;;6.95;;
31004;SDS011;17676;52.254;4.490;2023-04-16T11:44:20;11.80;;;6.50;;
31004;SDS011;17676;52.254;4.490;2023-04-16T11:46:48;18.38;;;6.57;;
31004;SDS011;17676;52.254;4.490;2023-04-16T11:49:14;15.82;;;6.80;;
31004;SDS011;17676;52.254;4.490;2023-04-16T11:51:44;14.45;;;7.50;;
31004;SDS011;17676;52.254;4.490;2023-04-16T11:54:18;21.67;;;7.38;;
31004;SDS011;17676;52.254;4.490;2023-04-16T11:56:45;16.13;;;7.07;;
31004;SDS011;17676;52.254;4.490;2023-04-16T11:59:13;20.23;;;8.05;;
31004;SDS011;17676;52.254;4.490;2023-04-16T12:01:46;22.00;;;7.47;;
31004;SDS011;17676;52.254;4.490;2023-04-16T12:04:14;23.10;;;9.38;;
31004;SDS011;17676;52.254;4.490;2023-04-16T12:09:37;19.38;;;8.13;;
31004;SDS011;17676;52.254;4.490;2023-04-16T12:12:04;20.48;;;9.65;;
31004;SDS011;17676;52.254;4.490;2023-04-16T12:14:30;20.55;;;8.10;;
31004;SDS011;17676;52.254;4.490;2023-04-16T12:17:18;18.73;;;7.57;;
31004;SDS011;17676;52.254;4.490;2023-04-16T12:19:51;17.83;;;7.50;;
31004;SDS011;17676;52.254;4.490;2023-04-16T12:22:34;23.20;;;7.43;;
31004;SDS011;17676;52.254;4.490;2023-04-16T12:25:01;19.13;;;8.20;;
31004;SDS011;17676;52.254;4.490;2023-04-16T12:30:50;18.10;;;7.28;;
31004;SDS011;17676;52.254;4.490;2023-04-16T12:33:17;22.33;;;7.43;;
31004;SDS011;17676;52.254;4.490;2023-04-16T12:35:45;16.42;;;5.63;;
31004;SDS011;17676;52.254;4.490;2023-04-16T12:38:20;18.55;;;6.20;;
31004;SDS011;17676;52.254;4.490;2023-04-16T12:40:57;23.10;;;6.15;;
31004;SDS011;17676;52.254;4.490;2023-04-16T12:43:31;15.30;;;5.85;;
31004;SDS011;17676;52.254;4.490;2023-04-16T12:46:04;15.32;;;6.20;;
31004;SDS011;17676;52.254;4.490;2023-04-16T12:48:36;14.52;;;5.68;;
31004;SDS011;17676;52.254;4.490;2023-04-16T12:51:01;19.63;;;5.70;;
31004;SDS011;17676;52.254;4.490;2023-04-16T12:53:27;20.30;;;5.45;;
31004;SDS011;17676;52.254;4.490;2023-04-16T12:55:53;17.83;;;5.28;;
31004;SDS011;17676;52.254;4.490;2023-04-16T12:58:22;16.02;;;4.55;;
31004;SDS011;17676;52.254;4.490;2023-04-16T13:00:51;16.85;;;5.00;;
31004;SDS011;17676;52.254;4.490;2023-04-16T13:03:17;16.13;;;4.97;;
31004;SDS011;17676;52.254;4.490;2023-04-16T13:05:45;20.75;;;6.30;;
31004;SDS011;17676;52.254;4.490;2023-04-16T13:08:12;19.40;;;6.15;;
31004;SDS011;17676;52.254;4.490;2023-04-16T13:10:41;22.45;;;5.88;;
31004;SDS011;17676;52.254;4.490;2023-04-16T13:13:07;17.58;;;7.03;;
31004;SDS011;17676;52.254;4.490;2023-04-16T13:15:42;15.15;;;7.25;;
31004;SDS011;17676;52.254;4.490;2023-04-16T13:18:08;15.60;;;8.00;;
31004;SDS011;17676;52.254;4.490;2023-04-16T13:20:34;15.50;;;7.78;;
31004;SDS011;17676;52.254;4.490;2023-04-16T13:23:13;18.15;;;8.90;;
31004;SDS011;17676;52.254;4.490;2023-04-16T13:25:49;16.23;;;7.40;;
31004;SDS011;17676;52.254;4.490;2023-04-16T13:28:31;13.05;;;7.20;;
31004;SDS011;17676;52.254;4.490;2023-04-16T13:31:05;14.98;;;7.07;;
31004;SDS011;17676;52.254;4.490;2023-04-16T13:33:31;17.52;;;7.40;;
31004;SDS011;17676;52.254;4.490;2023-04-16T13:35:57;12.73;;;6.43;;
31004;SDS011;17676;52.254;4.490;2023-04-16T13:38:25;10.98;;;5.45;;
31004;SDS011;17676;52.254;4.490;2023-04-16T13:40:55;14.73;;;6.07;;
31004;SDS011;17676;52.254;4.490;2023-04-16T13:43:22;13.52;;;5.45;;
31004;SDS011;17676;52.254;4.490;2023-04-16T13:45:47;13.40;;;5.50;;
31004;SDS011;17676;52.254;4.490;2023-04-16T13:48:13;18.25;;;6.63;;
31004;SDS011;17676;52.254;4.490;2023-04-16T13:50:38;17.60;;;6.38;;
31004;SDS011;17676;52.254;4.490;2023-04-16T13:53:05;17.77;;;5.88;;
31004;SDS011;17676;52.254;4.490;2023-04-16T13:55:30;15.50;;;6.00;;
31004;SDS011;17676;52.254;4.490;2023-04-16T13:58:04;18.00;;;6.20;;
31004;SDS011;17676;52.254;4.490;2023-04-16T14:00:31;17.95;;;6.20;;
31004;SDS011;17676;52.254;4.490;2023-04-16T14:02:56;16.75;;;6.28;;
31004;SDS011;17676;52.254;4.490;2023-04-16T14:05:22;12.23;;;5.88;;
31004;SDS011;17676;52.254;4.490;2023-04-16T14:07:49;12.88;;;6.82;;
31004;SDS011;17676;52.254;4.490;2023-04-16T14:10:18;18.27;;;6.07;;
31004;SDS011;17676;52.254;4.490;2023-04-16T14:12:44;15.40;;;7.28;;
31004;SDS011;17676;52.254;4.490;2023-04-16T14:15:10;16.10;;;6.80;;
31004;SDS011;17676;52.254;4.490;2023-04-16T14:17:38;15.60;;;6.57;;
31004;SDS011;17676;52.254;4.490;2023-04-16T14:20:09;19.95;;;7.47;;
31004;SDS011;17676;52.254;4.490;2023-04-16T14:22:38;15.65;;;7.45;;
31004;SDS011;17676;52.254;4.490;2023-04-16T14:25:06;15.13;;;7.10;;
31004;SDS011;17676;52.254;4.490;2023-04-16T14:27:32;20.17;;;7.38;;
31004;SDS011;17676;52.254;4.490;2023-04-16T14:29:58;22.85;;;7.82;;
31004;SDS011;17676;52.254;4.490;2023-04-16T14:32:24;14.70;;;7.00;;
31004;SDS011;17676;52.254;4.490;2023-04-16T14:34:50;19.90;;;6.85;;
31004;SDS011;17676;52.254;4.490;2023-04-16T14:37:16;18.42;;;7.03;;
31004;SDS011;17676;52.254;4.490;2023-04-16T14:39:42;23.95;;;7.72;;
31004;SDS011;17676;52.254;4.490;2023-04-16T14:42:08;16.92;;;7.57;;
31004;SDS011;17676;52.254;4.490;2023-04-16T14:44:35;19.65;;;7.95;;
31004;SDS011;17676;52.254;4.490;2023-04-16T14:47:01;23.98;;;7.70;;
31004;SDS011;17676;52.254;4.490;2023-04-16T14:49:28;22.00;;;8.05;;
31004;SDS011;17676;52.254;4.490;2023-04-16T14:51:56;20.20;;;8.13;;